sensor_id;sensor_type;location;lat;lon;timestamp;pressure;altitude;pressure_sealevel;temperature;humidity
47054;BME280;32811;52.382;5.270;2023-03-22T00:24:59;100884.53;;;8.03;100.00
47054;BME280;32811;52.382;5.270;2023-03-22T00:27:26;100888.03;;;8.08;100.00
47054;BME280;32811;52.382;5.270;2023-03-22T00:29:52;100876.03;;;8.07;100.00
47054;BME280;32811;52.382;5.270;2023-03-22T00:32:19;100874.34;;;8.09;100.00
47054;BME280;32811;52.382;5.270;2023-03-22T00:34:46;100875.16;;;8.05;100.00
47054;BME280;32811;52.382;5.270;2023-03-22T00:37:13;100881.19;;;8.07;100.00
47054;BME280;32811;52.382;5.270;2023-03-22T00:39:41;100867.41;;;8.02;100.00
47054;BME280;32811;52.382;5.270;2023-03-22T00:42:08;100864.06;;;8.09;100.00
47054;BME280;32811;52.382;5.270;2023-03-22T00:44:35;100870.03;;;8.06;100.00
47054;BME280;32811;52.382;5.270;2023-03-22T00:47:03;100864.00;;;8.06;100.00
47054;BME280;32811;52.382;5.270;2023-03-22T00:49:30;100854.53;;;8.00;100.00
47054;BME280;32811;52.382;5.270;2023-03-22T00:51:57;100851.09;;;8.01;100.00
47054;BME280;32811;52.382;5.270;2023-03-22T00:54:23;100852.81;;;8.01;100.00
47054;BME280;32811;52.382;5.270;2023-03-22T00:56:50;100845.13;;;8.02;100.00
47054;BME280;32811;52.382;5.270;2023-03-22T00:59:16;100846.91;;;8.06;100.00
47054;BME280;32811;52.382;5.270;2023-03-22T01:01:43;100830.50;;;7.98;100.00
47054;BME280;32811;52.382;5.270;2023-03-22T01:04:11;100849.56;;;8.14;100.00
47054;BME280;32811;52.382;5.270;2023-03-22T01:06:43;100849.59;;;8.16;100.00
47054;BME280;32811;52.382;5.270;2023-03-22T01:09:10;100839.34;;;8.17;100.00
47054;BME280;32811;52.382;5.270;2023-03-22T01:11:43;100835.97;;;8.21;100.00
47054;BME280;32811;52.382;5.270;2023-03-22T01:14:10;100835.06;;;8.18;100.00
47054;BME280;32811;52.382;5.270;2023-03-22T01:16:39;100835.13;;;8.22;100.00
47054;BME280;32811;52.382;5.270;2023-03-22T01:19:06;100829.09;;;8.20;100.00
47054;BME280;32811;52.382;5.270;2023-03-22T01:21:33;100829.09;;;8.20;100.00
47054;BME280;32811;52.382;5.270;2023-03-22T01:23:59;100814.50;;;8.18;100.00
47054;BME280;32811;52.382;5.270;2023-03-22T01:26:26;100818.84;;;8.22;100.00
47054;BME280;32811;52.382;5.270;2023-03-22T01:28:52;100806.06;;;8.28;100.00
47054;BME280;32811;52.382;5.270;2023-03-22T01:31:19;100802.53;;;8.20;100.00
47054;BME280;32811;52.382;5.270;2023-03-22T01:33:46;100806.09;;;8.32;100.00
47054;BME280;32811;52.382;5.270;2023-03-22T01:36:12;100798.44;;;8.36;100.00
47054;BME280;32811;52.382;5.270;2023-03-22T01:38:39;100787.22;;;8.29;100.00
47054;BME280;32811;52.382;5.270;2023-03-22T01:41:06;100788.00;;;8.23;100.00
47054;BME280;32811;52.382;5.270;2023-03-22T01:43:32;100794.06;;;8.30;100.00
47054;BME280;32811;52.382;5.270;2023-03-22T01:45:59;100792.34;;;8.27;100.00
47054;BME280;32811;52.382;5.270;2023-03-22T01:48:35;100771.72;;;8.23;100.00
47054;BME280;32811;52.382;5.270;2023-03-22T01:51:07;100782.84;;;8.23;100.00
47054;BME280;32811;52.382;5.270;2023-03-22T01:53:50;100773.41;;;8.21;100.00
47054;BME280;32811;52.382;5.270;2023-03-22T01:56:21;100769.94;;;8.19;100.00
47054;BME280;32811;52.382;5.270;2023-03-22T01:58:49;100765.66;;;8.19;100.00
47054;BME280;32811;52.382;5.270;2023-03-22T02:01:17;100748.47;;;8.14;100.00
47054;BME280;32811;52.382;5.270;2023-03-22T02:04:07;100757.09;;;8.19;100.00
47054;BME280;32811;52.382;5.270;2023-03-22T02:06:36;100750.16;;;8.13;100.00
47054;BME280;32811;52.382;5.270;2023-03-22T02:09:05;100746.72;;;8.11;100.00
47054;BME280;32811;52.382;5.270;2023-03-22T02:11:40;100742.41;;;8.10;100.00
47054;BME280;32811;52.382;5.270;2023-03-22T02:14:16;100732.16;;;8.11;100.00
47054;BME280;32811;52.382;5.270;2023-03-22T02:19:43;100733.84;;;8.09;100.00
47054;BME280;32811;52.382;5.270;2023-03-22T02:28:02;100720.06;;;8.04;100.00
47054;BME280;32811;52.382;5.270;2023-03-22T02:31:11;100709.72;;;8.01;100.00
47054;BME280;32811;52.382;5.270;2023-03-22T02:34:04;100704.59;;;8.01;100.00
47054;BME280;32811;52.382;5.270;2023-03-22T03:00:29;100674.03;;;8.26;100.00
47054;BME280;32811;52.382;5.270;2023-03-22T03:03:00;100662.91;;;8.27;100.00
47054;BME280;32811;52.382;5.270;2023-03-22T03:05:42;100663.81;;;8.32;100.00
47054;BME280;32811;52.382;5.270;2023-03-22T03:08:11;100667.25;;;8.31;100.00
47054;BME280;32811;52.382;5.270;2023-03-22T03:10:40;100670.66;;;8.30;100.00
47054;BME280;32811;52.382;5.270;2023-03-22T03:13:12;100669.88;;;8.36;100.00
47054;BME280;32811;52.382;5.270;2023-03-22T03:15:41;100669.88;;;8.36;100.00
47054;BME280;32811;52.382;5.270;2023-03-22T03:18:48;100669.00;;;8.37;100.00
47054;BME280;32811;52.382;5.270;2023-03-22T03:27:12;100667.41;;;8.43;100.00
47054;BME280;32811;52.382;5.270;2023-03-22T03:32:32;100658.13;;;8.61;100.00
47054;BME280;32811;52.382;5.270;2023-03-22T03:35:17;100652.13;;;8.59;100.00
47054;BME280;32811;52.382;5.270;2023-03-22T03:37:52;100658.16;;;8.62;100.00
47054;BME280;32811;52.382;5.270;2023-03-22T03:40:23;100646.13;;;8.61;100.00
47054;BME280;32811;52.382;5.270;2023-03-22T03:42:54;100641.91;;;8.68;100.00
47054;BME280;32811;52.382;5.270;2023-03-22T03:45:22;100654.03;;;8.81;100.00
47054;BME280;32811;52.382;5.270;2023-03-22T03:47:51;100642.81;;;8.73;100.00
47054;BME280;32811;52.382;5.270;2023-03-22T03:50:23;100656.50;;;8.70;100.00
47054;BME280;32811;52.382;5.270;2023-03-22T03:52:52;100649.63;;;8.68;100.00
47054;BME280;32811;52.382;5.270;2023-03-22T03:55:20;100647.91;;;8.67;100.00
47054;BME280;32811;52.382;5.270;2023-03-22T03:57:47;100653.88;;;8.66;100.00
47054;BME280;32811;52.382;5.270;2023-03-22T04:00:14;100655.66;;;8.70;100.00
47054;BME280;32811;52.382;5.270;2023-03-22T04:02:41;100655.66;;;8.70;100.00
47054;BME280;32811;52.382;5.270;2023-03-22T04:05:09;100653.06;;;8.68;100.00
47054;BME280;32811;52.382;5.270;2023-03-22T04:07:37;100649.66;;;8.71;100.00
47054;BME280;32811;52.382;5.270;2023-03-22T04:10:04;100653.97;;;8.73;100.00
47054;BME280;32811;52.382;5.270;2023-03-22T04:12:32;100645.34;;;8.68;100.00
47054;BME280;32811;52.382;5.270;2023-03-22T04:14:59;100653.06;;;8.68;100.00
47054;BME280;32811;52.382;5.270;2023-03-22T04:17:25;100657.41;;;8.74;100.00
47054;BME280;32811;52.382;5.270;2023-03-22T04:19:54;100652.22;;;8.69;100.00
47054;BME280;32811;52.382;5.270;2023-03-22T04:22:24;100653.13;;;8.73;100.00
47054;BME280;32811;52.382;5.270;2023-03-22T04:24:51;100644.47;;;8.66;100.00
47054;BME280;32811;52.382;5.270;2023-03-22T04:27:20;100648.78;;;8.70;100.00
47054;BME280;32811;52.382;5.270;2023-03-22T04:29:47;100639.34;;;8.66;100.00
47054;BME280;32811;52.382;5.270;2023-03-22T04:32:15;100639.34;;;8.69;100.00
47054;BME280;32811;52.382;5.270;2023-03-22T04:34:44;100640.16;;;8.64;100.00
47054;BME280;32811;52.382;5.270;2023-03-22T04:37:12;100626.44;;;8.62;100.00
47054;BME280;32811;52.382;5.270;2023-03-22T04:39:39;100632.44;;;8.64;100.00
47054;BME280;32811;52.382;5.270;2023-03-22T04:42:06;100631.56;;;8.60;100.00
47054;BME280;32811;52.382;5.270;2023-03-22T04:44:33;100631.53;;;8.59;100.00
47054;BME280;32811;52.382;5.270;2023-03-22T04:47:00;100626.41;;;8.60;100.00
47054;BME280;32811;52.382;5.270;2023-03-22T04:49:27;100629.84;;;8.64;100.00
47054;BME280;32811;52.382;5.270;2023-03-22T04:51:55;100626.44;;;8.65;100.00
47054;BME280;32811;52.382;5.270;2023-03-22T04:54:22;100616.16;;;8.65;100.00
47054;BME280;32811;52.382;5.270;2023-03-22T04:56:49;100610.09;;;8.58;100.00
47054;BME280;32811;52.382;5.270;2023-03-22T04:59:16;100613.56;;;8.63;100.00
47054;BME280;32811;52.382;5.270;2023-03-22T05:01:49;100610.09;;;8.58;100.00
47054;BME280;32811;52.382;5.270;2023-03-22T05:04:18;100606.72;;;8.65;100.00
47054;BME280;32811;52.382;5.270;2023-03-22T05:06:45;100605.81;;;8.59;100.00
47054;BME280;32811;52.382;5.270;2023-03-22T05:09:12;100598.94;;;8.59;100.00
47054;BME280;32811;52.382;5.270;2023-03-22T05:11:39;100594.66;;;8.58;100.00
47054;BME280;32811;52.382;5.270;2023-03-22T05:14:07;100586.09;;;8.59;100.00
47054;BME280;32811;52.382;5.270;2023-03-22T05:16:34;100588.69;;;8.62;100.00
47054;BME280;32811;52.382;5.270;2023-03-22T05:19:01;100599.03;;;8.67;100.00
47054;BME280;32811;52.382;5.270;2023-03-22T05:21:29;100584.44;;;8.64;100.00
47054;BME280;32811;52.382;5.270;2023-03-22T05:24:02;100594.75;;;8.67;100.00
47054;BME280;32811;52.382;5.270;2023-03-22T05:26:29;100593.84;;;8.64;100.00
47054;BME280;32811;52.382;5.270;2023-03-22T05:28:55;100592.13;;;8.63;100.00
47054;BME280;32811;52.382;5.270;2023-03-22T05:31:22;100582.72;;;8.68;100.00
47054;BME280;32811;52.382;5.270;2023-03-22T05:33:52;100580.19;;;8.71;100.00
47054;BME280;32811;52.382;5.270;2023-03-22T05:36:20;100578.50;;;8.73;100.00
47054;BME280;32811;52.382;5.270;2023-03-22T05:38:48;100573.34;;;8.73;100.00
47054;BME280;32811;52.382;5.270;2023-03-22T05:41:15;100578.50;;;8.73;100.00
47054;BME280;32811;52.382;5.270;2023-03-22T05:43:41;100564.78;;;8.77;100.00
47054;BME280;32811;52.382;5.270;2023-03-22T05:46:10;100570.78;;;8.76;100.00
47054;BME280;32811;52.382;5.270;2023-03-22T05:48:37;100570.81;;;8.81;100.00
47054;BME280;32811;52.382;5.270;2023-03-22T05:51:06;100552.81;;;8.78;100.00
47054;BME280;32811;52.382;5.270;2023-03-22T05:53:33;100557.16;;;8.92;100.00
47054;BME280;32811;52.382;5.270;2023-03-22T05:55:59;100548.53;;;8.86;100.00
47054;BME280;32811;52.382;5.270;2023-03-22T05:58:28;100550.25;;;8.85;100.00
47054;BME280;32811;52.382;5.270;2023-03-22T06:01:06;100557.16;;;8.89;100.00
47054;BME280;32811;52.382;5.270;2023-03-22T06:03:33;100555.47;;;8.91;100.00
47054;BME280;32811;52.382;5.270;2023-03-22T06:06:00;100554.59;;;8.91;100.00
47054;BME280;32811;52.382;5.270;2023-03-22T06:08:27;100543.41;;;8.84;100.00
47054;BME280;32811;52.382;5.270;2023-03-22T06:10:54;100542.56;;;8.87;100.00
47054;BME280;32811;52.382;5.270;2023-03-22T06:13:21;100540.81;;;8.86;100.00
47054;BME280;32811;52.382;5.270;2023-03-22T06:15:47;100548.53;;;8.86;100.00
47054;BME280;32811;52.382;5.270;2023-03-22T06:18:14;100551.13;;;8.87;100.00
47054;BME280;32811;52.382;5.270;2023-03-22T06:20:41;100552.81;;;8.82;100.00
47054;BME280;32811;52.382;5.270;2023-03-22T06:23:08;100567.44;;;8.86;100.00
47054;BME280;32811;52.382;5.270;2023-03-22T06:25:35;100562.28;;;8.88;100.00
47054;BME280;32811;52.382;5.270;2023-03-22T06:28:02;100562.31;;;8.89;100.00
47054;BME280;32811;52.382;5.270;2023-03-22T06:30:29;100561.47;;;8.93;100.00
47054;BME280;32811;52.382;5.270;2023-03-22T06:32:55;100554.63;;;8.96;100.00
47054;BME280;32811;52.382;5.270;2023-03-22T06:35:26;100564.94;;;9.02;100.00
47054;BME280;32811;52.382;5.270;2023-03-22T06:37:53;100564.13;;;9.03;100.00
47054;BME280;32811;52.382;5.270;2023-03-22T06:40:19;100556.38;;;9.03;100.00
47054;BME280;32811;52.382;5.270;2023-03-22T06:42:46;100558.97;;;9.03;100.00
47054;BME280;32811;52.382;5.270;2023-03-22T06:45:13;100556.44;;;9.09;100.00
47054;BME280;32811;52.382;5.270;2023-03-22T06:47:42;100564.19;;;9.13;100.00
47054;BME280;32811;52.382;5.270;2023-03-22T06:50:10;100563.34;;;9.21;100.00
47054;BME280;32811;52.382;5.270;2023-03-22T06:52:36;100557.41;;;9.29;100.00
47054;BME280;32811;52.382;5.270;2023-03-22T06:55:03;100553.13;;;9.34;100.00
47054;BME280;32811;52.382;5.270;2023-03-22T06:57:30;100555.69;;;9.38;100.00
47054;BME280;32811;52.382;5.270;2023-03-22T06:59:56;100562.56;;;9.37;100.00
47054;BME280;32811;52.382;5.270;2023-03-22T07:02:23;100557.44;;;9.39;100.00
47054;BME280;32811;52.382;5.270;2023-03-22T07:04:50;100553.09;;;9.27;100.00
47054;BME280;32811;52.382;5.270;2023-03-22T07:07:16;100561.69;;;9.30;100.00
47054;BME280;32811;52.382;5.270;2023-03-22T07:09:43;100552.25;;;9.32;100.00
47054;BME280;32811;52.382;5.270;2023-03-22T07:12:09;100545.41;;;9.34;100.00
47054;BME280;32811;52.382;5.270;2023-03-22T07:14:36;100549.72;;;9.35;100.00
47054;BME280;32811;52.382;5.270;2023-03-22T07:17:03;100549.72;;;9.35;100.00
47054;BME280;32811;52.382;5.270;2023-03-22T07:19:30;100554.00;;;9.40;100.00
47054;BME280;32811;52.382;5.270;2023-03-22T07:21:57;100554.84;;;9.39;100.00
47054;BME280;32811;52.382;5.270;2023-03-22T07:24:23;100557.41;;;9.32;100.00
47054;BME280;32811;52.382;5.270;2023-03-22T07:26:50;100557.38;;;9.31;100.00
47054;BME280;32811;52.382;5.270;2023-03-22T07:29:17;100546.25;;;9.33;100.00
47054;BME280;32811;52.382;5.270;2023-03-22T07:31:43;100548.06;;;9.56;100.00
47054;BME280;32811;52.382;5.270;2023-03-22T07:34:11;100538.66;;;9.70;100.00
47054;BME280;32811;52.382;5.270;2023-03-22T07:36:38;100541.25;;;9.76;100.00
47054;BME280;32811;52.382;5.270;2023-03-22T07:39:04;100537.81;;;9.74;100.00
47054;BME280;32811;52.382;5.270;2023-03-22T07:41:31;100548.13;;;9.76;100.00
47054;BME280;32811;52.382;5.270;2023-03-22T07:43:59;100529.22;;;9.72;100.00
47054;BME280;32811;52.382;5.270;2023-03-22T07:46:42;100537.78;;;9.68;100.00
47054;BME280;32811;52.382;5.270;2023-03-22T07:49:09;100525.75;;;9.64;100.00
47054;BME280;32811;52.382;5.270;2023-03-22T07:51:36;100531.81;;;9.69;100.00
47054;BME280;32811;52.382;5.270;2023-03-22T07:54:02;100529.22;;;9.77;100.00
47054;BME280;32811;52.382;5.270;2023-03-22T07:56:32;100521.53;;;9.83;100.00
47054;BME280;32811;52.382;5.270;2023-03-22T07:58:59;100531.84;;;9.92;100.00
47054;BME280;32811;52.382;5.270;2023-03-22T08:01:25;100524.97;;;9.94;100.00
47054;BME280;32811;52.382;5.270;2023-03-22T08:03:52;100533.59;;;9.98;100.00
47054;BME280;32811;52.382;5.270;2023-03-22T08:06:19;100534.44;;;9.92;100.00
47054;BME280;32811;52.382;5.270;2023-03-22T08:08:46;100546.47;;;9.92;100.00
47054;BME280;32811;52.382;5.270;2023-03-22T08:11:13;100533.56;;;9.86;100.00
47054;BME280;32811;52.382;5.270;2023-03-22T08:13:40;100536.97;;;9.83;100.00
47054;BME280;32811;52.382;5.270;2023-03-22T08:16:07;100545.59;;;9.88;100.00
47054;BME280;32811;52.382;5.270;2023-03-22T08:18:34;100543.88;;;9.87;100.00
47054;BME280;32811;52.382;5.270;2023-03-22T08:21:00;100553.31;;;9.84;100.00
47054;BME280;32811;52.382;5.270;2023-03-22T08:23:27;100527.56;;;9.96;100.00
47054;BME280;32811;52.382;5.270;2023-03-22T08:26:06;100524.09;;;9.95;100.00
47054;BME280;32811;52.382;5.270;2023-03-22T08:28:32;100527.56;;;10.13;100.00
47054;BME280;32811;52.382;5.270;2023-03-22T08:30:59;100531.88;;;10.15;100.00
47054;BME280;32811;52.382;5.270;2023-03-22T08:36:44;100537.91;;;10.14;100.00
47054;BME280;32811;52.382;5.270;2023-03-22T08:39:11;100525.88;;;10.16;100.00
47054;BME280;32811;52.382;5.270;2023-03-22T08:41:38;100536.16;;;10.13;100.00
47054;BME280;32811;52.382;5.270;2023-03-22T08:44:05;100517.25;;;9.99;100.00
47054;BME280;32811;52.382;5.270;2023-03-22T08:50:26;100520.69;;;9.92;100.00
47054;BME280;32811;52.382;5.270;2023-03-22T08:52:53;100530.13;;;9.88;100.00
47054;BME280;32811;52.382;5.270;2023-03-22T08:55:19;100537.84;;;9.85;100.00
47054;BME280;32811;52.382;5.270;2023-03-22T08:57:46;100530.09;;;9.81;100.00
47054;BME280;32811;52.382;5.270;2023-03-22T09:00:16;100545.56;;;9.84;100.00
47054;BME280;32811;52.382;5.270;2023-03-22T09:02:43;100535.22;;;9.77;100.00
47054;BME280;32811;52.382;5.270;2023-03-22T09:05:10;100540.41;;;9.76;100.00
47054;BME280;32811;52.382;5.270;2023-03-22T09:07:38;100548.94;;;9.66;100.00
47054;BME280;32811;52.382;5.270;2023-03-22T09:10:06;100542.91;;;9.54;100.00
47054;BME280;32811;52.382;5.270;2023-03-22T09:12:33;100546.38;;;9.63;100.00
47054;BME280;32811;52.382;5.270;2023-03-22T09:15:00;100535.19;;;9.59;100.00
47054;BME280;32811;52.382;5.270;2023-03-22T09:17:26;100546.38;;;9.64;100.00
47054;BME280;32811;52.382;5.270;2023-03-22T09:19:53;100547.22;;;9.62;100.00
47054;BME280;32811;52.382;5.270;2023-03-22T09:22:37;100542.91;;;9.56;100.00
47054;BME280;32811;52.382;5.270;2023-03-22T09:25:03;100546.31;;;9.47;100.00
47054;BME280;32811;52.382;5.270;2023-03-22T09:27:30;100546.34;;;9.52;100.00
47054;BME280;32811;52.382;5.270;2023-03-22T09:29:57;100535.16;;;9.45;100.00
47054;BME280;32811;52.382;5.270;2023-03-22T09:32:23;100542.81;;;9.38;100.00
47054;BME280;32811;52.382;5.270;2023-03-22T09:34:50;100534.25;;;9.35;100.00
47054;BME280;32811;52.382;5.270;2023-03-22T09:37:18;100540.25;;;9.36;100.00
47054;BME280;32811;52.382;5.270;2023-03-22T09:39:45;100534.22;;;9.29;100.00
47054;BME280;32811;52.382;5.270;2023-03-22T09:42:32;100535.91;;;9.24;100.00
47054;BME280;32811;52.382;5.270;2023-03-22T09:45:05;100546.22;;;9.26;100.00
47054;BME280;32811;52.382;5.270;2023-03-22T09:47:45;100541.94;;;9.28;100.00
47054;BME280;32811;52.382;5.270;2023-03-22T09:50:21;100544.50;;;9.28;100.00
47054;BME280;32811;52.382;5.270;2023-03-22T09:52:49;100536.78;;;9.25;100.00
47054;BME280;32811;52.382;5.270;2023-03-22T09:55:38;100544.47;;;9.20;100.00
47054;BME280;32811;52.382;5.270;2023-03-22T10:00:47;100534.16;;;9.22;100.00
47054;BME280;32811;52.382;5.270;2023-03-22T10:06:34;100552.22;;;9.23;100.00
47054;BME280;32811;52.382;5.270;2023-03-22T10:09:21;100546.22;;;9.27;100.00
47054;BME280;32811;52.382;5.270;2023-03-22T10:12:00;100547.91;;;9.24;100.00
47054;BME280;32811;52.382;5.270;2023-03-22T10:17:07;100555.63;;;9.19;100.00
47054;BME280;32811;52.382;5.270;2023-03-22T10:19:55;100555.63;;;9.24;100.00
47054;BME280;32811;52.382;5.270;2023-03-22T10:22:28;100550.47;;;9.21;100.00
47054;BME280;32811;52.382;5.270;2023-03-22T10:24:56;100562.50;;;9.20;100.00
47054;BME280;32811;52.382;5.270;2023-03-22T10:27:25;100561.63;;;9.20;100.00
47054;BME280;32811;52.382;5.270;2023-03-22T10:32:59;100555.63;;;9.18;100.00
47054;BME280;32811;52.382;5.270;2023-03-22T10:35:27;100559.91;;;9.16;100.00
47054;BME280;32811;52.382;5.270;2023-03-22T10:37:58;100552.13;;;9.08;100.00
47054;BME280;32811;52.382;5.270;2023-03-22T10:40:29;100563.34;;;9.18;100.00
47054;BME280;32811;52.382;5.270;2023-03-22T10:43:05;100558.16;;;9.13;100.00
47054;BME280;32811;52.382;5.270;2023-03-22T10:45:34;100557.31;;;9.17;100.00
47054;BME280;32811;52.382;5.270;2023-03-22T10:48:05;100553.94;;;9.30;100.00
47054;BME280;32811;52.382;5.270;2023-03-22T10:50:38;100543.66;;;9.30;100.00
47054;BME280;32811;52.382;5.270;2023-03-22T10:55:45;100537.69;;;9.41;100.00
47054;BME280;32811;52.382;5.270;2023-03-22T10:58:14;100537.69;;;9.44;100.00
47054;BME280;32811;52.382;5.270;2023-03-22T11:00:52;100529.13;;;9.40;100.00
47054;BME280;32811;52.382;5.270;2023-03-22T11:03:30;100525.72;;;9.52;100.00
47054;BME280;32811;52.382;5.270;2023-03-22T11:08:40;100540.41;;;9.71;100.00
47054;BME280;32811;52.382;5.270;2023-03-22T11:11:15;100536.91;;;9.54;100.00
47054;BME280;32811;52.382;5.270;2023-03-22T11:13:42;100545.53;;;9.65;100.00
47054;BME280;32811;52.382;5.270;2023-03-22T11:16:16;100543.78;;;9.64;100.00
47054;BME280;32811;52.382;5.270;2023-03-22T11:18:43;100533.50;;;9.67;100.00
47054;BME280;32811;52.382;5.270;2023-03-22T11:21:11;100513.72;;;9.63;100.00
47054;BME280;32811;52.382;5.270;2023-03-22T11:23:43;100517.16;;;9.62;100.00
47054;BME280;32811;52.382;5.270;2023-03-22T11:26:12;100523.22;;;9.78;100.00
47054;BME280;32811;52.382;5.270;2023-03-22T11:28:48;100524.09;;;9.79;100.00
47054;BME280;32811;52.382;5.270;2023-03-22T11:31:17;100541.25;;;9.76;100.00
47054;BME280;32811;52.382;5.270;2023-03-22T11:33:56;100535.25;;;9.76;100.00
47054;BME280;32811;52.382;5.270;2023-03-22T11:36:23;100537.84;;;9.81;100.00
47054;BME280;32811;52.382;5.270;2023-03-22T11:38:58;100561.88;;;9.73;100.00
47054;BME280;32811;52.382;5.270;2023-03-22T11:41:33;100564.44;;;9.70;100.00
47054;BME280;32811;52.382;5.270;2023-03-22T11:44:03;100577.28;;;9.61;100.00
47054;BME280;32811;52.382;5.270;2023-03-22T11:46:30;100574.72;;;9.61;100.00
47054;BME280;32811;52.382;5.270;2023-03-22T11:49:07;100579.00;;;9.59;100.00
47054;BME280;32811;52.382;5.270;2023-03-22T11:51:38;100584.09;;;9.50;100.00
47054;BME280;32811;52.382;5.270;2023-03-22T11:56:56;100571.22;;;9.53;100.00
47054;BME280;32811;52.382;5.270;2023-03-22T11:59:26;100541.13;;;9.40;100.00
47054;BME280;32811;52.382;5.270;2023-03-22T12:02:01;100560.06;;;9.52;100.00
47054;BME280;32811;52.382;5.270;2023-03-22T12:04:34;100576.47;;;9.67;100.00
47054;BME280;32811;52.382;5.270;2023-03-22T12:07:05;100554.06;;;9.60;100.00
47054;BME280;32811;52.382;5.270;2023-03-22T12:09:48;100563.56;;;9.61;100.00
47054;BME280;32811;52.382;5.270;2023-03-22T12:12:25;100559.25;;;9.58;100.00
47054;BME280;32811;52.382;5.270;2023-03-22T12:17:39;100564.41;;;9.58;100.00
47054;BME280;32811;52.382;5.270;2023-03-22T12:20:34;100557.53;;;9.55;100.00
47054;BME280;32811;52.382;5.270;2023-03-22T12:23:12;100570.38;;;9.52;100.00
47054;BME280;32811;52.382;5.270;2023-03-22T12:25:43;100560.13;;;9.60;100.00
47054;BME280;32811;52.382;5.270;2023-03-22T12:28:14;100568.69;;;9.56;100.00
47054;BME280;32811;52.382;5.270;2023-03-22T12:30:54;100560.09;;;9.57;100.00
47054;BME280;32811;52.382;5.270;2023-03-22T12:33:26;100558.38;;;9.59;100.00
47054;BME280;32811;52.382;5.270;2023-03-22T12:35:57;100557.56;;;9.68;100.00
47054;BME280;32811;52.382;5.270;2023-03-22T12:41:01;100553.25;;;9.68;100.00
47054;BME280;32811;52.382;5.270;2023-03-22T12:43:55;100550.69;;;9.65;100.00
47054;BME280;32811;52.382;5.270;2023-03-22T12:46:27;100543.81;;;9.66;100.00
47054;BME280;32811;52.382;5.270;2023-03-22T12:49:01;100548.97;;;9.70;100.00
47054;BME280;32811;52.382;5.270;2023-03-22T12:51:29;100534.38;;;9.72;100.00
47054;BME280;32811;52.382;5.270;2023-03-22T12:53:57;100529.22;;;9.75;100.00
47054;BME280;32811;52.382;5.270;2023-03-22T12:56:32;100520.66;;;9.78;100.00
47054;BME280;32811;52.382;5.270;2023-03-22T12:59:04;100538.72;;;9.86;100.00
47054;BME280;32811;52.382;5.270;2023-03-22T13:01:51;100536.13;;;9.84;100.00
47054;BME280;32811;52.382;5.270;2023-03-22T13:17:39;100560.16;;;9.74;100.00
47054;BME280;32811;52.382;5.270;2023-03-22T13:25:26;100558.47;;;9.81;100.00
47054;BME280;32811;52.382;5.270;2023-03-22T13:28:02;100553.28;;;9.82;100.00
47054;BME280;32811;52.382;5.270;2023-03-22T13:30:51;100549.06;;;9.98;100.00
47054;BME280;32811;52.382;5.270;2023-03-22T13:33:35;100550.75;;;9.90;100.00
47054;BME280;32811;52.382;5.270;2023-03-22T13:36:06;100533.56;;;9.93;100.00
47054;BME280;32811;52.382;5.270;2023-03-22T13:38:40;100539.59;;;9.97;100.00
47054;BME280;32811;52.382;5.270;2023-03-22T13:41:27;100531.84;;;10.00;100.00
47054;BME280;32811;52.382;5.270;2023-03-22T13:44:00;100543.03;;;10.02;100.00
47054;BME280;32811;52.382;5.270;2023-03-22T13:49:48;100531.84;;;9.95;100.00
47054;BME280;32811;52.382;5.270;2023-03-22T13:52:28;100526.72;;;10.08;100.00
47054;BME280;32811;52.382;5.270;2023-03-22T13:54:59;100525.84;;;10.00;100.00
47054;BME280;32811;52.382;5.270;2023-03-22T13:57:48;100531.00;;;10.04;100.00
47054;BME280;32811;52.382;5.270;2023-03-22T14:02:59;100525.00;;;10.17;100.00
47054;BME280;32811;52.382;5.270;2023-03-22T14:05:29;100524.13;;;10.25;100.00
47054;BME280;32811;52.382;5.270;2023-03-22T14:07:59;100521.63;;;10.34;100.00
47054;BME280;32811;52.382;5.270;2023-03-22T14:15:48;100507.84;;;10.27;100.00
47054;BME280;32811;52.382;5.270;2023-03-22T14:18:20;100505.28;;;10.32;100.00
47054;BME280;32811;52.382;5.270;2023-03-22T14:20:52;100496.66;;;10.37;100.00
47054;BME280;32811;52.382;5.270;2023-03-22T14:23:26;100497.53;;;10.33;100.00
47054;BME280;32811;52.382;5.270;2023-03-22T14:25:59;100494.09;;;10.34;100.00
47054;BME280;32811;52.382;5.270;2023-03-22T14:28:47;100491.50;;;10.31;100.00
47054;BME280;32811;52.382;5.270;2023-03-22T14:31:24;100478.63;;;10.33;100.00
47054;BME280;32811;52.382;5.270;2023-03-22T14:33:52;100477.72;;;10.45;100.00
47054;BME280;32811;52.382;5.270;2023-03-22T14:36:19;100473.44;;;10.44;100.00
47054;BME280;32811;52.382;5.270;2023-03-22T14:38:47;100471.75;;;10.47;100.00
47054;BME280;32811;52.382;5.270;2023-03-22T14:43:40;100476.03;;;10.48;100.00
47054;BME280;32811;52.382;5.270;2023-03-22T14:46:35;100477.75;;;10.46;100.00
47054;BME280;32811;52.382;5.270;2023-03-22T14:49:03;100483.78;;;10.44;100.00
47054;BME280;32811;52.382;5.270;2023-03-22T14:51:32;100480.34;;;10.38;100.00
47054;BME280;32811;52.382;5.270;2023-03-22T14:53:59;100480.31;;;10.35;100.00
47054;BME280;32811;52.382;5.270;2023-03-22T14:56:29;100476.91;;;10.35;100.00
47054;BME280;32811;52.382;5.270;2023-03-22T14:58:59;100474.31;;;10.29;100.00
47054;BME280;32811;52.382;5.270;2023-03-22T15:01:29;100470.03;;;10.29;100.00
47054;BME280;32811;52.382;5.270;2023-03-22T15:04:03;100480.34;;;10.34;100.00
47054;BME280;32811;52.382;5.270;2023-03-22T15:06:31;100479.47;;;10.38;100.00
47054;BME280;32811;52.382;5.270;2023-03-22T15:09:06;100473.44;;;10.42;100.00
47054;BME280;32811;52.382;5.270;2023-03-22T15:11:33;100476.03;;;10.45;100.00
47054;BME280;32811;52.382;5.270;2023-03-22T15:14:00;100475.16;;;10.48;100.00